»·PEaware :: SWA2369 KSNA-KLAS

SWA2369 :: KSNA-KLAS

FLIGHT INFORMATION

Flight Status: Arrived
Operator:
Southwest Airlines
More flights by this operator :: More flights under this callsign
Pilot: Cody B. (17747)
Aircraft: BOEING 737-800
(B738)
More flights by this aircraft type
Origin: KSNA John Wayne-Orange Co
United States
Destination: KLAS McCarran Intl
United States
More flights between these airports :: More routes between these airports
Route: +FINZZ2 MISEN KEPEC6
File this flight plan on PilotEdge
Remarks:
Altitude:
(Current/Filed)
29,000ft
Speed:
(Current/Filed)
439kts
Departed: 18-Jun-18 09:40 AM
Arrived: 18-Jun-18 10:30 AM
Distance/Time
Traveled:
197nm/0:50
Distance/Time
To Go:
Arrived

Flight Plot

Page will automatically refresh every two minutes.

Flight plan parsing failed; only flown route is shown


Map Options




Map Legend


Flown Route
Filed Route
Departure Airport
Arrival Airport
Navaid (VOR, NDB)
Fix

Horizontal Profiles

Position Reports

Time Latitude Longitude Heading Altitude Ground
Speed
18-Jun-18 09:11 33.675062 -117.865110 117 64ft 0kts
18-Jun-18 09:12 33.675062 -117.865110 117 64ft 0kts
18-Jun-18 09:13 33.675062 -117.865110 117 64ft 0kts
18-Jun-18 09:14 33.675062 -117.865110 117 64ft 0kts
18-Jun-18 09:15 33.675062 -117.865110 117 64ft 0kts
18-Jun-18 09:16 33.675062 -117.865110 117 64ft 0kts
18-Jun-18 09:17 33.675062 -117.865110 117 64ft 0kts
18-Jun-18 09:18 33.675062 -117.865110 117 64ft 0kts
18-Jun-18 09:19 33.675062 -117.865110 117 64ft 0kts
18-Jun-18 09:20 33.675062 -117.865110 117 64ft 0kts
18-Jun-18 09:21 33.675062 -117.865110 117 64ft 0kts
18-Jun-18 09:22 33.675062 -117.865110 117 64ft 0kts
18-Jun-18 09:23 33.675062 -117.865110 117 64ft 0kts
18-Jun-18 09:24 33.675062 -117.865110 117 64ft 0kts
18-Jun-18 09:25 33.675062 -117.865110 117 64ft 0kts
18-Jun-18 09:26 33.675062 -117.865110 117 64ft 0kts
18-Jun-18 09:27 33.675062 -117.865110 117 64ft 0kts
18-Jun-18 09:28 33.675062 -117.865110 117 64ft 0kts
18-Jun-18 09:29 33.675062 -117.865110 117 64ft 0kts
18-Jun-18 09:30 33.675142 -117.865297 116 64ft 0kts
18-Jun-18 09:31 33.675045 -117.865885 36 64ft 2kts
18-Jun-18 09:32 33.674969 -117.865941 28 64ft 0kts
18-Jun-18 09:33 33.674969 -117.865941 28 64ft 0kts
18-Jun-18 09:34 33.674969 -117.865941 28 64ft 0kts
18-Jun-18 09:35 33.676145 -117.865202 28 64ft 7kts
18-Jun-18 09:36 33.678804 -117.863517 26 64ft 13kts
18-Jun-18 09:37 33.681026 -117.863920 298 64ft 10kts
18-Jun-18 09:38 33.681130 -117.864149 297 64ft 1kts
18-Jun-18 09:39 33.681381 -117.865255 203 64ft 0kts
18-Jun-18 09:40 33.678013 -117.867362 207 64ft 94kts
18-Jun-18 09:41 33.633771 -117.894508 198 1444ft 218kts
18-Jun-18 09:42 33.568243 -117.908645 210 3183ft 268kts
18-Jun-18 09:43 33.511734 -117.968072 227 6433ft 276kts
18-Jun-18 09:44 33.520869 -118.047754 307 9289ft 276kts
18-Jun-18 09:45 33.576076 -118.112479 339 10164ft 304kts
18-Jun-18 09:46 33.659782 -118.086483 22 12696ft 334kts
18-Jun-18 09:47 33.743672 -118.038365 22 15490ft 351kts
18-Jun-18 09:48 33.833478 -117.986088 21 17738ft 374kts
18-Jun-18 09:49 33.924739 -117.927424 32 20327ft 389kts
18-Jun-18 09:50 34.011561 -117.848326 31 22565ft 401kts
18-Jun-18 09:51 34.099108 -117.763777 43 24561ft 421kts
18-Jun-18 09:52 34.172371 -117.655869 45 26325ft 435kts
18-Jun-18 09:53 34.249265 -117.541325 45 28009ft 446kts
18-Jun-18 09:54 34.328291 -117.423372 44 29106ft 464kts
18-Jun-18 09:55 34.411453 -117.298918 46 29086ft 497kts
18-Jun-18 09:56 34.498424 -117.168004 46 29080ft 500kts
18-Jun-18 09:57 34.586103 -117.037733 45 29080ft 499kts
18-Jun-18 09:58 34.674880 -116.908383 45 29048ft 499kts
18-Jun-18 09:59 34.763543 -116.778529 45 29042ft 499kts
18-Jun-18 10:00 34.852279 -116.648789 41 29042ft 498kts
18-Jun-18 10:01 34.958153 -116.542687 32 27824ft 497kts
18-Jun-18 10:02 35.059469 -116.444342 32 25184ft 445kts
18-Jun-18 10:03 35.147720 -116.346704 40 24063ft 429kts
18-Jun-18 10:04 35.231892 -116.241301 41 21602ft 429kts
18-Jun-18 10:05 35.311932 -116.140629 41 20037ft 410kts
18-Jun-18 10:06 35.389639 -116.042623 42 18550ft 398kts
18-Jun-18 10:07 35.465695 -115.946411 42 17087ft 388kts
18-Jun-18 10:08 35.539577 -115.852655 42 15668ft 377kts
18-Jun-18 10:09 35.611052 -115.761684 43 14272ft 364kts
18-Jun-18 10:10 35.677697 -115.676614 43 13032ft 331kts
18-Jun-18 10:11 35.739942 -115.597535 37 13024ft 324kts
18-Jun-18 10:12 35.823055 -115.573136 358 13029ft 309kts
18-Jun-18 10:13 35.908766 -115.568013 358 13031ft 309kts
18-Jun-18 10:14 35.981505 -115.517797 59 12593ft 322kts
18-Jun-18 10:15 36.015381 -115.419870 67 11481ft 298kts
18-Jun-18 10:16 36.026523 -115.324193 96 10411ft 283kts
18-Jun-18 10:17 36.019800 -115.229253 97 9356ft 271kts
18-Jun-18 10:18 36.013762 -115.140519 97 8517ft 249kts
18-Jun-18 10:19 36.008273 -115.057016 96 8039ft 247kts
18-Jun-18 10:20 36.003266 -114.972403 96 8029ft 248kts
18-Jun-18 10:21 35.998206 -114.887238 96 8001ft 249kts
18-Jun-18 10:22 35.992974 -114.802116 96 8000ft 249kts
18-Jun-18 10:23 36.027152 -114.745163 338 7018ft 247kts
18-Jun-18 10:24 36.062232 -114.811709 291 5244ft 242kts
18-Jun-18 10:25 36.079298 -114.890773 272 5004ft 240kts
18-Jun-18 10:26 36.071411 -114.966271 266 4555ft 195kts
18-Jun-18 10:27 36.072688 -115.027017 271 3662ft 163kts
18-Jun-18 10:28 36.073279 -115.078703 272 2755ft 144kts
18-Jun-18 10:29 36.073610 -115.129789 269 2062ft 149kts
18-Jun-18 10:30 36.074554 -115.145633 296 2102ft 7kts
18-Jun-18 10:31 36.074571 -115.145675 296 2102ft 0kts
18-Jun-18 10:32 36.074639 -115.145842 296 2102ft 1kts
18-Jun-18 10:33 36.074936 -115.146367 316 2103ft 5kts
18-Jun-18 10:34 36.076960 -115.146564 359 2103ft 10kts
18-Jun-18 10:35 36.078508 -115.147806 79 2103ft 8kts
18-Jun-18 10:36 36.079855 -115.147257 57 2097ft 3kts
18-Jun-18 10:37 36.079924 -115.147122 58 2096ft 0kts
18-Jun-18 10:38 36.079924 -115.147122 58 2096ft 0kts

Navigation Log

Ident Type
Flight plan parsing failed, navigation log unavailable